sensor_id;sensor_type;location;lat;lon;timestamp;pressure;altitude;pressure_sealevel;temperature;humidity
9009;BME280;62813;51.424;6.762;2023-03-14T00:01:08;98849.41;;;11.61;77.28
9009;BME280;62813;51.424;6.762;2023-03-14T00:03:34;98836.41;;;11.61;77.49
9009;BME280;62813;51.424;6.762;2023-03-14T00:06:03;98837.00;;;11.65;77.33
9009;BME280;62813;51.424;6.762;2023-03-14T00:08:30;98826.50;;;11.66;77.10
9009;BME280;62813;51.424;6.762;2023-03-14T00:10:57;98818.56;;;11.68;76.84
9009;BME280;62813;51.424;6.762;2023-03-14T00:13:26;98806.41;;;11.68;76.90
9009;BME280;62813;51.424;6.762;2023-03-14T00:15:53;98809.00;;;11.68;76.81
9009;BME280;62813;51.424;6.762;2023-03-14T00:18:22;98798.53;;;11.70;76.95
9009;BME280;62813;51.424;6.762;2023-03-14T00:20:49;98796.84;;;11.69;77.50
9009;BME280;62813;51.424;6.762;2023-03-14T00:23:16;98802.78;;;11.71;77.06
9009;BME280;62813;51.424;6.762;2023-03-14T00:25:43;98805.38;;;11.71;77.13
9009;BME280;62813;51.424;6.762;2023-03-14T00:28:10;98814.81;;;11.72;77.09
9009;BME280;62813;51.424;6.762;2023-03-14T00:30:37;98827.47;;;11.77;76.64
9009;BME280;62813;51.424;6.762;2023-03-14T00:33:04;98839.28;;;11.81;76.52
9009;BME280;62813;51.424;6.762;2023-03-14T00:35:31;98843.06;;;11.77;79.22
9009;BME280;62813;51.424;6.762;2023-03-14T00:37:57;98854.38;;;11.64;81.77
9009;BME280;62813;51.424;6.762;2023-03-14T00:40:24;98855.19;;;11.54;83.03
9009;BME280;62813;51.424;6.762;2023-03-14T00:42:50;98849.34;;;11.39;83.26
9009;BME280;62813;51.424;6.762;2023-03-14T00:45:17;98861.34;;;11.18;84.96
9009;BME280;62813;51.424;6.762;2023-03-14T00:47:44;98861.69;;;11.13;85.18
9009;BME280;62813;51.424;6.762;2023-03-14T00:50:13;98839.34;;;10.99;85.48
9009;BME280;62813;51.424;6.762;2023-03-14T00:52:40;98844.72;;;10.96;85.05
9009;BME280;62813;51.424;6.762;2023-03-14T00:55:07;98831.22;;;10.91;85.55
9009;BME280;62813;51.424;6.762;2023-03-14T00:57:33;98834.50;;;10.82;85.43
9009;BME280;62813;51.424;6.762;2023-03-14T01:00:00;98830.56;;;10.76;85.08
9009;BME280;62813;51.424;6.762;2023-03-14T01:02:27;98840.84;;;10.78;84.42
9009;BME280;62813;51.424;6.762;2023-03-14T01:04:54;98843.53;;;10.76;84.49
9009;BME280;62813;51.424;6.762;2023-03-14T01:07:21;98841.19;;;10.73;84.71
9009;BME280;62813;51.424;6.762;2023-03-14T01:09:51;98852.69;;;10.69;84.87
9009;BME280;62813;51.424;6.762;2023-03-14T01:12:18;98845.75;;;10.70;84.68
9009;BME280;62813;51.424;6.762;2023-03-14T01:14:44;98852.81;;;10.68;84.59
9009;BME280;62813;51.424;6.762;2023-03-14T01:17:12;98854.69;;;10.66;84.93
9009;BME280;62813;51.424;6.762;2023-03-14T01:19:38;98850.34;;;10.66;84.64
9009;BME280;62813;51.424;6.762;2023-03-14T01:22:05;98839.03;;;10.67;85.07
9009;BME280;62813;51.424;6.762;2023-03-14T01:24:32;98837.38;;;10.66;84.50
9009;BME280;62813;51.424;6.762;2023-03-14T01:27:02;98840.06;;;10.65;84.13
9009;BME280;62813;51.424;6.762;2023-03-14T01:29:29;98827.31;;;10.61;84.32
9009;BME280;62813;51.424;6.762;2023-03-14T01:31:55;98837.91;;;10.58;84.33
9009;BME280;62813;51.424;6.762;2023-03-14T01:34:22;98830.84;;;10.60;84.38
9009;BME280;62813;51.424;6.762;2023-03-14T01:36:49;98829.91;;;10.61;84.47
9009;BME280;62813;51.424;6.762;2023-03-14T01:39:15;98828.97;;;10.63;84.80
9009;BME280;62813;51.424;6.762;2023-03-14T01:41:42;98840.63;;;10.57;84.95
9009;BME280;62813;51.424;6.762;2023-03-14T01:44:11;98843.94;;;10.59;84.23
9009;BME280;62813;51.424;6.762;2023-03-14T01:46:39;98823.28;;;10.57;83.70
9009;BME280;62813;51.424;6.762;2023-03-14T01:52:05;98822.06;;;10.50;84.28
9009;BME280;62813;51.424;6.762;2023-03-14T01:54:46;98823.72;;;10.51;83.49
9009;BME280;62813;51.424;6.762;2023-03-14T01:57:18;98823.72;;;10.51;83.39
9009;BME280;62813;51.424;6.762;2023-03-14T01:59:50;98827.16;;;10.52;83.28
9009;BME280;62813;51.424;6.762;2023-03-14T02:02:19;98815.72;;;10.54;83.36
9009;BME280;62813;51.424;6.762;2023-03-14T02:04:46;98827.53;;;10.58;83.27
9009;BME280;62813;51.424;6.762;2023-03-14T02:07:20;98824.19;;;10.56;82.85
9009;BME280;62813;51.424;6.762;2023-03-14T02:09:49;98813.63;;;10.59;83.33
9009;BME280;62813;51.424;6.762;2023-03-14T02:12:17;98813.63;;;10.59;82.67
9009;BME280;62813;51.424;6.762;2023-03-14T02:14:44;98812.69;;;10.60;82.49
9009;BME280;62813;51.424;6.762;2023-03-14T02:17:17;98811.16;;;10.58;82.43
9009;BME280;62813;51.424;6.762;2023-03-14T02:22:35;98815.28;;;10.60;82.18
9009;BME280;62813;51.424;6.762;2023-03-14T02:25:11;98798.06;;;10.59;82.98
9009;BME280;62813;51.424;6.762;2023-03-14T02:27:40;98810.91;;;10.61;82.34
9009;BME280;62813;51.424;6.762;2023-03-14T02:30:15;98814.34;;;10.61;83.01
9009;BME280;62813;51.424;6.762;2023-03-14T02:32:46;98817.75;;;10.62;82.90
9009;BME280;62813;51.424;6.762;2023-03-14T02:35:40;98820.47;;;10.60;83.02
9009;BME280;62813;51.424;6.762;2023-03-14T02:38:17;98821.09;;;10.64;83.32
9009;BME280;62813;51.424;6.762;2023-03-14T02:40:47;98833.22;;;10.64;83.14
9009;BME280;62813;51.424;6.762;2023-03-14T02:43:14;98835.72;;;10.65;83.12
9009;BME280;62813;51.424;6.762;2023-03-14T02:45:43;98824.41;;;10.66;83.51
9009;BME280;62813;51.424;6.762;2023-03-14T02:48:32;98819.31;;;10.65;83.64
9009;BME280;62813;51.424;6.762;2023-03-14T02:51:01;98813.63;;;10.59;83.43
9009;BME280;62813;51.424;6.762;2023-03-14T02:53:30;98816.22;;;10.59;83.94
9009;BME280;62813;51.424;6.762;2023-03-14T02:55:57;98817.03;;;10.60;83.99
9009;BME280;62813;51.424;6.762;2023-03-14T02:58:25;98814.44;;;10.60;83.61
9009;BME280;62813;51.424;6.762;2023-03-14T03:00:53;98814.56;;;10.58;83.93
9009;BME280;62813;51.424;6.762;2023-03-14T03:03:20;98805.34;;;10.54;84.03
9009;BME280;62813;51.424;6.762;2023-03-14T03:05:51;98804.63;;;10.52;84.22
9009;BME280;62813;51.424;6.762;2023-03-14T03:08:19;98803.91;;;10.50;84.32
9009;BME280;62813;51.424;6.762;2023-03-14T03:10:46;98796.63;;;10.55;83.80
9009;BME280;62813;51.424;6.762;2023-03-14T03:13:14;98793.81;;;10.58;83.37
9009;BME280;62813;51.424;6.762;2023-03-14T03:15:41;98794.13;;;10.54;82.83
9009;BME280;62813;51.424;6.762;2023-03-14T03:18:08;98783.38;;;10.47;83.43
9009;BME280;62813;51.424;6.762;2023-03-14T03:20:35;98784.44;;;10.45;83.21
9009;BME280;62813;51.424;6.762;2023-03-14T03:23:01;98785.38;;;10.44;83.14
9009;BME280;62813;51.424;6.762;2023-03-14T03:25:29;98778.41;;;10.44;83.37
9009;BME280;62813;51.424;6.762;2023-03-14T03:27:57;98780.28;;;10.42;82.76
9009;BME280;62813;51.424;6.762;2023-03-14T03:30:23;98787.63;;;10.48;82.81
9009;BME280;62813;51.424;6.762;2023-03-14T03:32:50;98782.34;;;10.50;83.01
9009;BME280;62813;51.424;6.762;2023-03-14T03:35:17;98778.69;;;10.52;82.86
9009;BME280;62813;51.424;6.762;2023-03-14T03:37:43;98770.19;;;10.50;82.60
9009;BME280;62813;51.424;6.762;2023-03-14T03:40:10;98784.59;;;10.54;82.82
9009;BME280;62813;51.424;6.762;2023-03-14T03:42:37;98789.88;;;10.53;83.60
9009;BME280;62813;51.424;6.762;2023-03-14T03:45:04;98783.38;;;10.47;85.31
9009;BME280;62813;51.424;6.762;2023-03-14T03:47:31;98773.44;;;10.41;86.39
9009;BME280;62813;51.424;6.762;2023-03-14T03:49:58;98774.81;;;10.34;87.69
9009;BME280;62813;51.424;6.762;2023-03-14T03:52:24;98768.53;;;10.25;88.13
9009;BME280;62813;51.424;6.762;2023-03-14T03:54:51;98763.22;;;10.27;87.74
9009;BME280;62813;51.424;6.762;2023-03-14T03:57:17;98768.00;;;10.20;87.47
9009;BME280;62813;51.424;6.762;2023-03-14T03:59:44;98751.75;;;10.18;87.39
9009;BME280;62813;51.424;6.762;2023-03-14T04:02:11;98765.41;;;10.20;87.29
9009;BME280;62813;51.424;6.762;2023-03-14T04:04:38;98755.88;;;10.21;86.85
9009;BME280;62813;51.424;6.762;2023-03-14T04:07:05;98768.75;;;10.22;87.27
9009;BME280;62813;51.424;6.762;2023-03-14T04:09:32;98759.09;;;10.24;86.45
9009;BME280;62813;51.424;6.762;2023-03-14T04:11:58;98772.88;;;10.25;86.37
9009;BME280;62813;51.424;6.762;2023-03-14T04:14:26;98785.13;;;10.23;86.76
9009;BME280;62813;51.424;6.762;2023-03-14T04:16:52;98776.19;;;10.27;87.32
9009;BME280;62813;51.424;6.762;2023-03-14T04:19:20;98766.25;;;10.21;87.62
9009;BME280;62813;51.424;6.762;2023-03-14T04:21:47;98768.16;;;10.06;88.28
9009;BME280;62813;51.424;6.762;2023-03-14T04:24:14;98772.63;;;10.04;88.50
9009;BME280;62813;51.424;6.762;2023-03-14T04:26:41;98759.50;;;9.94;89.45
9009;BME280;62813;51.424;6.762;2023-03-14T04:29:07;98755.44;;;9.90;89.76
9009;BME280;62813;51.424;6.762;2023-03-14T04:31:34;98753.41;;;9.83;89.93
9009;BME280;62813;51.424;6.762;2023-03-14T04:34:01;98747.69;;;9.77;89.79
9009;BME280;62813;51.424;6.762;2023-03-14T04:36:27;98740.97;;;9.75;89.87
9009;BME280;62813;51.424;6.762;2023-03-14T04:38:54;98754.13;;;9.72;90.21
9009;BME280;62813;51.424;6.762;2023-03-14T04:41:21;98752.69;;;9.68;90.64
9009;BME280;62813;51.424;6.762;2023-03-14T04:43:47;98755.19;;;9.69;91.25
9009;BME280;62813;51.424;6.762;2023-03-14T04:46:14;98750.94;;;9.68;91.35
9009;BME280;62813;51.424;6.762;2023-03-14T04:48:41;98744.94;;;9.68;91.80
9009;BME280;62813;51.424;6.762;2023-03-14T04:51:08;98744.00;;;9.69;90.98
9009;BME280;62813;51.424;6.762;2023-03-14T04:53:34;98740.69;;;9.67;91.25
9009;BME280;62813;51.424;6.762;2023-03-14T04:56:02;98737.47;;;9.63;91.40
9009;BME280;62813;51.424;6.762;2023-03-14T04:58:28;98744.28;;;9.64;91.68
9009;BME280;62813;51.424;6.762;2023-03-14T05:00:55;98735.69;;;9.64;91.95
9009;BME280;62813;51.424;6.762;2023-03-14T05:03:22;98737.75;;;9.71;91.95
9009;BME280;62813;51.424;6.762;2023-03-14T05:05:48;98732.50;;;9.73;92.36
9009;BME280;62813;51.424;6.762;2023-03-14T05:08:15;98731.56;;;9.74;92.20
9009;BME280;62813;51.424;6.762;2023-03-14T05:10:42;98719.63;;;9.71;92.31
9009;BME280;62813;51.424;6.762;2023-03-14T05:13:08;98718.09;;;9.69;92.51
9009;BME280;62813;51.424;6.762;2023-03-14T05:15:35;98720.78;;;9.67;92.70
9009;BME280;62813;51.424;6.762;2023-03-14T05:18:01;98717.56;;;9.64;93.07
9009;BME280;62813;51.424;6.762;2023-03-14T05:20:28;98725.75;;;9.70;93.06
9009;BME280;62813;51.424;6.762;2023-03-14T05:22:55;98718.31;;;9.66;93.03
9009;BME280;62813;51.424;6.762;2023-03-14T05:25:21;98716.75;;;9.63;93.03
9009;BME280;62813;51.424;6.762;2023-03-14T05:27:48;98711.25;;;9.68;92.72
9009;BME280;62813;51.424;6.762;2023-03-14T05:30:15;98700.91;;;9.55;93.20
9009;BME280;62813;51.424;6.762;2023-03-14T05:32:41;98701.53;;;9.59;93.85
9009;BME280;62813;51.424;6.762;2023-03-14T05:35:09;98696.75;;;9.65;93.48
9009;BME280;62813;51.424;6.762;2023-03-14T05:37:36;98696.13;;;9.62;93.54
9009;BME280;62813;51.424;6.762;2023-03-14T05:40:03;98698.72;;;9.62;93.88
9009;BME280;62813;51.424;6.762;2023-03-14T05:42:31;98691.78;;;9.62;94.20
9009;BME280;62813;51.424;6.762;2023-03-14T05:44:57;98693.66;;;9.60;94.51
9009;BME280;62813;51.424;6.762;2023-03-14T05:47:24;98693.78;;;9.59;94.90
9009;BME280;62813;51.424;6.762;2023-03-14T05:49:51;98695.00;;;9.66;94.75
9009;BME280;62813;51.424;6.762;2023-03-14T05:52:17;98683.19;;;9.62;94.97
9009;BME280;62813;51.424;6.762;2023-03-14T05:54:44;98681.81;;;9.69;94.87
9009;BME280;62813;51.424;6.762;2023-03-14T05:57:11;98692.88;;;9.71;94.92
9009;BME280;62813;51.424;6.762;2023-03-14T05:59:37;98686.34;;;9.78;94.60
9009;BME280;62813;51.424;6.762;2023-03-14T06:02:04;98683.56;;;9.81;94.66
9009;BME280;62813;51.424;6.762;2023-03-14T06:04:31;98683.97;;;9.75;95.04
9009;BME280;62813;51.424;6.762;2023-03-14T06:06:58;98681.81;;;9.69;95.21
9009;BME280;62813;51.424;6.762;2023-03-14T06:09:24;98679.84;;;9.72;95.23
9009;BME280;62813;51.424;6.762;2023-03-14T06:11:51;98678.41;;;9.68;95.69
9009;BME280;62813;51.424;6.762;2023-03-14T06:14:18;98681.81;;;9.69;95.57
9009;BME280;62813;51.424;6.762;2023-03-14T06:16:44;98679.00;;;9.72;95.36
9009;BME280;62813;51.424;6.762;2023-03-14T06:19:11;98684.19;;;9.72;95.51
9009;BME280;62813;51.424;6.762;2023-03-14T06:21:38;98684.91;;;9.74;95.04
9009;BME280;62813;51.424;6.762;2023-03-14T06:24:06;98692.34;;;9.78;95.22
9009;BME280;62813;51.424;6.762;2023-03-14T06:26:33;98682.34;;;9.74;95.06
9009;BME280;62813;51.424;6.762;2023-03-14T06:29:00;98684.69;;;9.77;95.02
9009;BME280;62813;51.424;6.762;2023-03-14T06:31:33;98681.97;;;9.78;94.76
9009;BME280;62813;51.424;6.762;2023-03-14T06:33:59;98686.16;;;9.81;95.43
9009;BME280;62813;51.424;6.762;2023-03-14T06:36:28;98680.34;;;9.77;95.30
9009;BME280;62813;51.424;6.762;2023-03-14T06:38:55;98688.84;;;9.80;95.70
9009;BME280;62813;51.424;6.762;2023-03-14T06:41:22;98686.97;;;9.82;95.36
9009;BME280;62813;51.424;6.762;2023-03-14T06:43:50;98693.50;;;9.87;95.64
9009;BME280;62813;51.424;6.762;2023-03-14T06:46:16;98693.13;;;9.92;95.85
9009;BME280;62813;51.424;6.762;2023-03-14T06:48:43;98694.78;;;9.93;94.84
9009;BME280;62813;51.424;6.762;2023-03-14T06:51:10;98697.50;;;9.91;95.53
9009;BME280;62813;51.424;6.762;2023-03-14T06:53:36;98696.34;;;9.95;96.10
9009;BME280;62813;51.424;6.762;2023-03-14T06:56:03;98699.53;;;9.99;95.74
9009;BME280;62813;51.424;6.762;2023-03-14T06:58:30;98697.78;;;9.99;95.80
9009;BME280;62813;51.424;6.762;2023-03-14T07:00:57;98690.75;;;10.01;95.29
9009;BME280;62813;51.424;6.762;2023-03-14T07:03:24;98696.88;;;10.00;95.64
9009;BME280;62813;51.424;6.762;2023-03-14T07:05:51;98703.91;;;9.98;95.34
9009;BME280;62813;51.424;6.762;2023-03-14T07:08:18;98701.31;;;9.98;95.41
9009;BME280;62813;51.424;6.762;2023-03-14T07:10:45;98699.16;;;9.92;95.03
9009;BME280;62813;51.424;6.762;2023-03-14T07:13:12;98702.47;;;9.94;95.57
9009;BME280;62813;51.424;6.762;2023-03-14T07:15:38;98709.63;;;9.91;95.37
9009;BME280;62813;51.424;6.762;2023-03-14T07:18:05;98703.19;;;9.96;95.26
9009;BME280;62813;51.424;6.762;2023-03-14T07:20:32;98715.72;;;10.02;95.63
9009;BME280;62813;51.424;6.762;2023-03-14T07:22:58;98710.53;;;10.02;95.24
9009;BME280;62813;51.424;6.762;2023-03-14T07:25:29;98711.97;;;10.06;94.98
9009;BME280;62813;51.424;6.762;2023-03-14T07:27:56;98715.28;;;10.09;94.62
9009;BME280;62813;51.424;6.762;2023-03-14T07:30:22;98715.88;;;10.12;94.72
9009;BME280;62813;51.424;6.762;2023-03-14T07:32:49;98719.19;;;10.14;94.36
9009;BME280;62813;51.424;6.762;2023-03-14T07:35:16;98720.75;;;10.17;94.53
9009;BME280;62813;51.424;6.762;2023-03-14T07:37:42;98720.41;;;10.21;94.61
9009;BME280;62813;51.424;6.762;2023-03-14T07:40:09;98719.38;;;10.24;95.02
9009;BME280;62813;51.424;6.762;2023-03-14T07:42:37;98726.31;;;10.23;95.42
9009;BME280;62813;51.424;6.762;2023-03-14T07:45:04;98721.13;;;10.23;95.59
9009;BME280;62813;51.424;6.762;2023-03-14T07:47:33;98728.09;;;10.23;95.85
9009;BME280;62813;51.424;6.762;2023-03-14T07:49:59;98737.72;;;10.21;96.37
9009;BME280;62813;51.424;6.762;2023-03-14T07:52:26;98731.00;;;10.18;96.20
9009;BME280;62813;51.424;6.762;2023-03-14T07:54:53;98730.88;;;10.20;96.35
9009;BME280;62813;51.424;6.762;2023-03-14T07:57:19;98731.63;;;10.22;96.85
9009;BME280;62813;51.424;6.762;2023-03-14T07:59:46;98739.69;;;10.30;96.63
9009;BME280;62813;51.424;6.762;2023-03-14T08:02:12;98737.34;;;10.38;96.57
9009;BME280;62813;51.424;6.762;2023-03-14T08:04:40;98745.34;;;10.35;97.25
9009;BME280;62813;51.424;6.762;2023-03-14T08:07:07;98741.72;;;10.38;96.99
9009;BME280;62813;51.424;6.762;2023-03-14T08:09:33;98751.75;;;10.42;96.95
9009;BME280;62813;51.424;6.762;2023-03-14T08:12:00;98747.88;;;10.48;97.33
9009;BME280;62813;51.424;6.762;2023-03-14T08:14:27;98748.88;;;10.58;97.35
9009;BME280;62813;51.424;6.762;2023-03-14T08:16:55;98744.09;;;10.76;96.47
9009;BME280;62813;51.424;6.762;2023-03-14T08:19:22;98747.69;;;10.86;96.74
9009;BME280;62813;51.424;6.762;2023-03-14T08:21:48;98744.00;;;11.01;95.43
9009;BME280;62813;51.424;6.762;2023-03-14T08:24:15;98743.53;;;11.19;95.01
9009;BME280;62813;51.424;6.762;2023-03-14T08:26:45;98751.56;;;11.27;94.53
9009;BME280;62813;51.424;6.762;2023-03-14T08:29:11;98740.97;;;11.30;94.13
9009;BME280;62813;51.424;6.762;2023-03-14T08:31:39;98748.28;;;11.36;93.47
9009;BME280;62813;51.424;6.762;2023-03-14T08:34:05;98754.66;;;11.32;93.16
9009;BME280;62813;51.424;6.762;2023-03-14T08:36:33;98747.44;;;11.24;93.36
9009;BME280;62813;51.424;6.762;2023-03-14T08:39:00;98759.34;;;11.27;93.42
9009;BME280;62813;51.424;6.762;2023-03-14T08:41:27;98763.34;;;11.08;93.90
9009;BME280;62813;51.424;6.762;2023-03-14T08:43:54;98762.28;;;11.11;94.28
9009;BME280;62813;51.424;6.762;2023-03-14T08:46:20;98761.25;;;11.13;94.14
9009;BME280;62813;51.424;6.762;2023-03-14T08:48:47;98765.69;;;11.00;94.25
9009;BME280;62813;51.424;6.762;2023-03-14T08:51:14;98766.53;;;11.01;94.09
9009;BME280;62813;51.424;6.762;2023-03-14T08:53:41;98772.34;;;10.92;94.12
9009;BME280;62813;51.424;6.762;2023-03-14T08:56:09;98775.78;;;10.92;93.18
9009;BME280;62813;51.424;6.762;2023-03-14T08:58:39;98774.78;;;10.82;93.27
9009;BME280;62813;51.424;6.762;2023-03-14T09:01:07;98783.25;;;10.73;93.48
9009;BME280;62813;51.424;6.762;2023-03-14T09:03:34;98792.44;;;10.66;93.64
9009;BME280;62813;51.424;6.762;2023-03-14T09:06:06;98800.53;;;10.61;93.88
9009;BME280;62813;51.424;6.762;2023-03-14T09:08:33;98830.53;;;10.65;93.79
9009;BME280;62813;51.424;6.762;2023-03-14T09:11:05;98885.72;;;10.18;90.89
9009;BME280;62813;51.424;6.762;2023-03-14T09:13:32;98889.50;;;9.88;88.21
9009;BME280;62813;51.424;6.762;2023-03-14T09:15:59;98901.06;;;9.57;88.34
9009;BME280;62813;51.424;6.762;2023-03-14T09:18:26;98900.41;;;9.41;88.38
9009;BME280;62813;51.424;6.762;2023-03-14T09:20:52;98895.44;;;9.50;87.13
9009;BME280;62813;51.424;6.762;2023-03-14T09:23:19;98908.41;;;9.50;87.32
9009;BME280;62813;51.424;6.762;2023-03-14T09:25:46;98923.22;;;9.48;87.86
9009;BME280;62813;51.424;6.762;2023-03-14T09:28:12;98927.28;;;9.53;88.15
9009;BME280;62813;51.424;6.762;2023-03-14T09:30:39;98945.16;;;9.43;86.82
9009;BME280;62813;51.424;6.762;2023-03-14T09:33:05;98948.50;;;9.45;87.69
9009;BME280;62813;51.424;6.762;2023-03-14T09:35:33;98952.84;;;9.44;88.49
9009;BME280;62813;51.424;6.762;2023-03-14T09:38:00;98970.31;;;9.41;88.46
9009;BME280;62813;51.424;6.762;2023-03-14T09:40:31;98990.13;;;9.42;87.83
9009;BME280;62813;51.424;6.762;2023-03-14T09:43:00;98999.59;;;9.29;88.22
9009;BME280;62813;51.424;6.762;2023-03-14T09:45:38;99010.59;;;9.32;89.11
9009;BME280;62813;51.424;6.762;2023-03-14T09:48:16;99018.25;;;9.34;88.62
9009;BME280;62813;51.424;6.762;2023-03-14T09:50:49;99020.59;;;9.24;88.89
9009;BME280;62813;51.424;6.762;2023-03-14T09:53:21;99031.13;;;9.21;89.01
9009;BME280;62813;51.424;6.762;2023-03-14T09:55:50;99049.84;;;9.12;89.89
9009;BME280;62813;51.424;6.762;2023-03-14T09:58:23;99061.13;;;9.11;89.70
9009;BME280;62813;51.424;6.762;2023-03-14T10:00:53;99062.22;;;9.07;90.25
9009;BME280;62813;51.424;6.762;2023-03-14T10:03:40;99071.09;;;9.03;89.31
9009;BME280;62813;51.424;6.762;2023-03-14T10:06:12;99088.66;;;8.97;88.09
9009;BME280;62813;51.424;6.762;2023-03-14T10:08:41;99082.19;;;8.90;89.33
9009;BME280;62813;51.424;6.762;2023-03-14T10:11:17;99105.25;;;8.79;87.54
9009;BME280;62813;51.424;6.762;2023-03-14T10:13:49;99110.06;;;8.85;89.80
9009;BME280;62813;51.424;6.762;2023-03-14T10:16:16;99113.22;;;8.90;88.51
9009;BME280;62813;51.424;6.762;2023-03-14T10:18:45;99133.56;;;8.96;88.91
9009;BME280;62813;51.424;6.762;2023-03-14T10:21:27;99141.34;;;8.96;89.33
9009;BME280;62813;51.424;6.762;2023-03-14T10:23:54;99160.38;;;8.95;87.78
9009;BME280;62813;51.424;6.762;2023-03-14T10:26:34;99156.66;;;8.85;88.29
9009;BME280;62813;51.424;6.762;2023-03-14T10:29:12;99180.25;;;8.95;88.62
9009;BME280;62813;51.424;6.762;2023-03-14T10:31:47;99197.81;;;8.60;88.91
9009;BME280;62813;51.424;6.762;2023-03-14T10:34:26;99203.44;;;8.36;89.29
9009;BME280;62813;51.424;6.762;2023-03-14T10:36:57;99207.25;;;8.45;88.91
9009;BME280;62813;51.424;6.762;2023-03-14T10:42:28;99254.19;;;8.07;86.89
9009;BME280;62813;51.424;6.762;2023-03-14T10:44:59;99283.56;;;7.73;84.86
9009;BME280;62813;51.424;6.762;2023-03-14T10:47:28;99294.69;;;7.58;84.22
9009;BME280;62813;51.424;6.762;2023-03-14T10:52:52;99324.28;;;7.35;84.69
9009;BME280;62813;51.424;6.762;2023-03-14T10:55:39;99331.28;;;7.33;83.62
9009;BME280;62813;51.424;6.762;2023-03-14T11:01:02;99346.28;;;7.42;82.72
9009;BME280;62813;51.424;6.762;2023-03-14T11:03:32;99351.81;;;7.52;81.08
9009;BME280;62813;51.424;6.762;2023-03-14T11:06:18;99371.25;;;7.59;80.53
9009;BME280;62813;51.424;6.762;2023-03-14T11:08:57;99376.72;;;7.70;79.72
9009;BME280;62813;51.424;6.762;2023-03-14T11:11:31;99395.41;;;7.75;80.34
9009;BME280;62813;51.424;6.762;2023-03-14T11:19:36;99422.72;;;7.79;78.74
9009;BME280;62813;51.424;6.762;2023-03-14T11:22:17;99451.75;;;7.84;79.11
9009;BME280;62813;51.424;6.762;2023-03-14T11:27:30;99455.69;;;7.74;76.88
9009;BME280;62813;51.424;6.762;2023-03-14T11:30:17;99476.66;;;7.51;76.73
9009;BME280;62813;51.424;6.762;2023-03-14T11:35:38;99495.09;;;7.61;78.32
9009;BME280;62813;51.424;6.762;2023-03-14T11:40:41;99511.97;;;7.50;75.22
9009;BME280;62813;51.424;6.762;2023-03-14T11:43:14;99513.28;;;7.59;75.88
9009;BME280;62813;51.424;6.762;2023-03-14T11:45:43;99528.50;;;7.46;76.02
9009;BME280;62813;51.424;6.762;2023-03-14T11:48:24;99528.47;;;7.48;77.76
9009;BME280;62813;51.424;6.762;2023-03-14T11:50:57;99547.84;;;7.56;77.51
9009;BME280;62813;51.424;6.762;2023-03-14T11:54:03;99533.56;;;7.67;77.36
9009;BME280;62813;51.424;6.762;2023-03-14T11:56:37;99553.00;;;7.56;76.67
9009;BME280;62813;51.424;6.762;2023-03-14T11:59:11;99557.25;;;7.57;75.90
9009;BME280;62813;51.424;6.762;2023-03-14T12:01:50;99568.41;;;7.58;75.48
9009;BME280;62813;51.424;6.762;2023-03-14T12:07:19;99582.22;;;7.76;74.41
9009;BME280;62813;51.424;6.762;2023-03-14T12:09:49;99593.38;;;7.76;72.82
9009;BME280;62813;51.424;6.762;2023-03-14T12:12:22;99593.66;;;7.70;73.26
9009;BME280;62813;51.424;6.762;2023-03-14T12:15:20;99600.28;;;7.76;73.33
9009;BME280;62813;51.424;6.762;2023-03-14T12:17:53;99597.81;;;7.92;74.50
9009;BME280;62813;51.424;6.762;2023-03-14T12:20:25;99607.84;;;7.98;72.26
9009;BME280;62813;51.424;6.762;2023-03-14T12:23:02;99613.31;;;8.09;71.72
9009;BME280;62813;51.424;6.762;2023-03-14T12:25:32;99622.13;;;8.05;70.85
9009;BME280;62813;51.424;6.762;2023-03-14T12:30:30;99640.22;;;8.05;71.33
9009;BME280;62813;51.424;6.762;2023-03-14T12:35:46;99684.75;;;7.74;73.61
9009;BME280;62813;51.424;6.762;2023-03-14T12:38:28;99685.44;;;7.58;73.33
9009;BME280;62813;51.424;6.762;2023-03-14T12:41:15;99693.84;;;7.64;74.54
9009;BME280;62813;51.424;6.762;2023-03-14T12:43:43;99700.47;;;7.69;74.21
9009;BME280;62813;51.424;6.762;2023-03-14T12:46:27;99721.34;;;7.65;73.48
9009;BME280;62813;51.424;6.762;2023-03-14T12:49:04;99700.75;;;7.63;74.19
9009;BME280;62813;51.424;6.762;2023-03-14T12:51:36;99728.41;;;7.61;75.42
9009;BME280;62813;51.424;6.762;2023-03-14T12:57:13;99734.81;;;7.71;69.85
9009;BME280;62813;51.424;6.762;2023-03-14T12:59:50;99742.47;;;7.73;69.78
9009;BME280;62813;51.424;6.762;2023-03-14T13:02:21;99770.22;;;7.69;69.55
9009;BME280;62813;51.424;6.762;2023-03-14T13:05:01;99762.19;;;7.75;70.49
9009;BME280;62813;51.424;6.762;2023-03-14T13:13:02;99824.06;;;7.38;70.38
9009;BME280;62813;51.424;6.762;2023-03-14T13:15:40;99819.22;;;7.10;70.15
9009;BME280;62813;51.424;6.762;2023-03-14T13:18:16;99832.84;;;6.93;71.16
9009;BME280;62813;51.424;6.762;2023-03-14T13:21:03;99848.81;;;6.81;69.10
9009;BME280;62813;51.424;6.762;2023-03-14T13:23:34;99841.00;;;6.82;70.07
9009;BME280;62813;51.424;6.762;2023-03-14T13:26:03;99844.38;;;6.84;70.76
9009;BME280;62813;51.424;6.762;2023-03-14T13:28:34;99849.00;;;6.96;70.31
9009;BME280;62813;51.424;6.762;2023-03-14T13:31:02;99858.00;;;7.08;69.93
9009;BME280;62813;51.424;6.762;2023-03-14T13:33:29;99860.16;;;7.19;70.93
9009;BME280;62813;51.424;6.762;2023-03-14T13:36:01;99867.53;;;7.28;72.00
9009;BME280;62813;51.424;6.762;2023-03-14T13:38:35;99870.75;;;7.33;71.50
9009;BME280;62813;51.424;6.762;2023-03-14T13:41:06;99867.06;;;7.39;72.36
9009;BME280;62813;51.424;6.762;2023-03-14T13:43:41;99869.38;;;7.65;72.57
9009;BME280;62813;51.424;6.762;2023-03-14T13:46:22;99869.88;;;7.73;71.17
9009;BME280;62813;51.424;6.762;2023-03-14T13:48:56;99870.13;;;7.88;71.67
9009;BME280;62813;51.424;6.762;2023-03-14T13:51:24;99878.09;;;8.02;72.09
9009;BME280;62813;51.424;6.762;2023-03-14T13:53:55;99879.25;;;8.15;71.32
9009;BME280;62813;51.424;6.762;2023-03-14T13:56:24;99893.38;;;8.27;71.19
9009;BME280;62813;51.424;6.762;2023-03-14T13:58:51;99882.47;;;8.20;68.43
9009;BME280;62813;51.424;6.762;2023-03-14T14:01:20;99889.78;;;8.29;67.32
9009;BME280;62813;51.424;6.762;2023-03-14T14:03:52;99904.41;;;8.30;66.50
9009;BME280;62813;51.424;6.762;2023-03-14T14:06:35;99898.56;;;8.46;67.06
9009;BME280;62813;51.424;6.762;2023-03-14T14:09:43;99908.47;;;8.55;63.59
9009;BME280;62813;51.424;6.762;2023-03-14T14:12:15;99911.53;;;8.44;59.58
9009;BME280;62813;51.424;6.762;2023-03-14T14:17:18;99922.41;;;8.52;54.27